Mastic, NY

4:37 PM EDT on April 30, 2016 (GMT -0400)
Residential higher plateau | | Change Station

Elev 69 ft 40.80 °N, 72.87 °W | Updated 10 minutes ago

Clear
Clear
56.1 °F
Feels Like 56.1 °F
N
3.2
Wind Variable Wind from ENE

Today
High -- | Low -- °F
--% Chance of Precip.
Yesterday
High -- | Low -- °F
Precip. -- in
Pressure 30.24 in
Visibility 10.0 miles
Clouds Clear
Dew Point 37 °F
Humidity 48%
Rainfall 0.00 in
Snow Depth Not available.
5:50 AM 7:47 PM
Last Quarter, 42% visible
METAR KHWV 301956Z AUTO 15008KT 10SM CLR 13/03 A3023 RMK AO2 SLP238 T01280033 TSNO
Pressure 30.24 in
Visibility 10.0 miles
Clouds Clear
Dew Point 37 °F
Humidity 48%
Rainfall 0.00 in
Snow Depth Not available.
5:50 AM 7:47 PM
Last Quarter, 42% visible
METAR KHWV 301956Z AUTO 15008KT 10SM CLR 13/03 A3023 RMK AO2 SLP238 T01280033 TSNO

10-Day Weather Forecast

Almanac

Astronomy

Apr. 30, 2016 Rise Set
Actual Time
Civil Twilight
Nautical Twilight
Astronomical Twilight
Moon
Length of Visible Light
Length of Day
Tomorrow will be .
, % of the Moon is Illuminated

Today's Extremes

State Highs State Lows

Community

WunderPhotos

Upload Photos

1,909,054 photos uploaded!

WunderBlog® & News

Nearby

Air Quality

  Air Quality AQ Index Pollutant
Not available.

Snow Depth

Station Depth Elevation

Earthquake Activity

City Distance Mag. Time & Date
Minimum magnitude displayed is 2.5.

Coastal Water Temperatures

Place Temperature

Stations

Nearby Weather Stations

Station Location Temp. Windchill Dew Point Humidity Wind Precip. Elev Updated Type
                   

Watches & Warnings

There are currently no watches in effect.